Time;durP1;ratioP1;P1;durP2;ratioP2;P2;SDS_P1;SDS_P2;PMS_P1;PMS_P2;Temp;Humidity;BMP_temperature;BMP_pressure;BME280_temperature;BME280_humidity;BME280_pressure;Samples;Min_cycle;Max_cycle;Signal;HPM_P1;HPM_P2
2023/06/18 00:00:33;;;;;;;34.75;24.02;;;13.50;98.20;;;;;;5002177;28;20076;-65
2023/06/18 00:02:59;;;;;;;41.17;26.30;;;13.50;98.20;;;;;;5008528;28;20488;-66
2023/06/18 00:05:24;;;;;;;42.33;24.73;;;13.50;98.20;;;;;;5000766;28;20126;-65
2023/06/18 00:07:50;;;;;;;36.97;24.88;;;13.40;98.10;;;;;;5004338;28;20056;-66
2023/06/18 00:10:15;;;;;;;38.38;24.92;;;13.40;98.10;;;;;;5000753;28;20056;-64
2023/06/18 00:12:41;;;;;;;40.53;24.67;;;13.30;98.20;;;;;;4998792;28;20240;-65
2023/06/18 00:15:07;;;;;;;35.40;24.98;;;13.30;98.30;;;;;;5008617;28;20434;-65
2023/06/18 00:17:32;;;;;;;37.78;24.65;;;13.30;98.30;;;;;;5007334;28;20373;-64
2023/06/18 00:19:58;;;;;;;39.42;26.25;;;13.30;98.30;;;;;;5005010;28;20029;-65
2023/06/18 00:22:23;;;;;;;40.53;25.67;;;13.30;98.30;;;;;;5004103;28;20051;-65
2023/06/18 00:24:49;;;;;;;39.97;25.60;;;13.30;98.30;;;;;;4999872;28;20026;-64
2023/06/18 00:27:14;;;;;;;43.33;27.13;;;13.30;98.40;;;;;;5016261;28;20038;-65
2023/06/18 00:29:40;;;;;;;43.20;25.50;;;13.30;98.40;;;;;;5005759;28;20129;-65
2023/06/18 00:32:06;;;;;;;37.22;25.63;;;13.30;98.40;;;;;;5009388;28;20056;-66
2023/06/18 00:34:32;;;;;;;43.35;27.05;;;13.30;98.50;;;;;;5001810;28;20026;-65
2023/06/18 00:37:03;;;;;;;49.58;29.25;;;13.30;98.50;;;;;;5005034;28;20033;-67
2023/06/18 00:39:28;;;;;;;55.30;30.73;;;13.30;98.60;;;;;;5006806;28;20018;-65
2023/06/18 00:41:54;;;;;;;50.30;29.15;;;13.30;98.60;;;;;;5004965;28;20414;-65
2023/06/18 00:44:21;;;;;;;50.25;30.88;;;13.30;98.70;;;;;;5005316;28;20026;-64
2023/06/18 00:46:48;;;;;;;49.80;31.10;;;13.30;98.70;;;;;;4996490;28;20053;-65
2023/06/18 00:49:15;;;;;;;50.30;31.92;;;13.30;98.70;;;;;;5009814;28;20164;-65
2023/06/18 00:51:44;;;;;;;54.72;33.58;;;13.30;98.80;;;;;;5008045;28;20393;-66
2023/06/18 00:54:13;;;;;;;54.75;34.08;;;13.40;98.90;;;;;;5006625;28;20057;-65
2023/06/18 00:56:50;;;;;;;51.35;34.42;;;13.40;99.00;;;;;;5001364;28;20169;-65
2023/06/18 00:59:21;;;;;;;51.10;33.60;;;13.30;98.90;;;;;;5001265;28;20044;-65
2023/06/18 01:01:47;;;;;;;55.50;34.65;;;13.30;99.00;;;;;;5001343;28;20034;-65
2023/06/18 01:04:13;;;;;;;56.95;35.95;;;13.20;98.90;;;;;;5005873;28;20120;-69
2023/06/18 01:06:39;;;;;;;58.10;37.85;;;13.20;98.80;;;;;;4997863;28;20117;-64
2023/06/18 01:09:05;;;;;;;55.17;33.47;;;13.10;98.70;;;;;;5009649;28;20021;-67
2023/06/18 01:11:37;;;;;;;53.75;34.15;;;13.10;98.70;;;;;;5005640;28;20088;-65
2023/06/18 01:14:09;;;;;;;52.22;33.55;;;13.10;98.80;;;;;;5006045;28;20105;-65
2023/06/18 01:16:37;;;;;;;55.88;32.65;;;13.10;98.70;;;;;;5002749;28;20070;-64
2023/06/18 01:19:04;;;;;;;55.10;33.83;;;13.10;98.70;;;;;;5012375;28;20478;-65
2023/06/18 01:21:35;;;;;;;48.45;32.75;;;13.00;98.60;;;;;;4998449;28;20378;-65
2023/06/18 01:24:11;;;;;;;53.72;33.78;;;13.00;98.60;;;;;;5004660;28;20025;-64
2023/06/18 01:26:40;;;;;;;53.40;34.53;;;13.00;98.60;;;;;;5004951;28;20445;-65
2023/06/18 01:29:09;;;;;;;57.40;33.78;;;13.00;98.70;;;;;;5006802;28;20034;-66
2023/06/18 01:31:36;;;;;;;53.47;35.33;;;12.90;98.70;;;;;;5004235;28;20030;-66
2023/06/18 01:34:04;;;;;;;63.42;38.92;;;12.90;98.80;;;;;;5005779;28;20018;-66
2023/06/18 01:36:53;;;;;;;62.25;38.60;;;12.90;98.70;;;;;;5005798;28;20375;-65
2023/06/18 01:39:44;;;;;;;61.10;36.83;;;13.00;98.80;;;;;;4990108;28;20023;-64
2023/06/18 01:42:18;;;;;;;56.60;35.10;;;12.90;98.90;;;;;;4999350;28;20060;-64
2023/06/18 01:44:52;;;;;;;52.75;34.53;;;13.00;98.90;;;;;;4997283;28;20026;-65
2023/06/18 01:47:20;;;;;;;61.92;38.08;;;13.00;99.00;;;;;;4999266;28;20144;-65
2023/06/18 01:49:46;;;;;;;65.00;38.00;;;12.90;98.90;;;;;;5000929;28;20025;-66
2023/06/18 01:52:16;;;;;;;65.88;39.47;;;13.00;99.00;;;;;;5012677;28;20358;-67
2023/06/18 01:54:46;;;;;;;67.25;38.38;;;12.90;99.00;;;;;;4999611;28;20037;-68
2023/06/18 01:57:13;;;;;;;58.58;37.28;;;12.90;98.90;;;;;;5010616;28;20021;-65
2023/06/18 01:59:41;;;;;;;59.10;37.00;;;12.80;99.00;;;;;;5008886;28;20431;-66
2023/06/18 02:02:07;;;;;;;61.67;38.63;;;12.80;98.90;;;;;;5012189;28;20188;-65
2023/06/18 02:04:32;;;;;;;64.00;37.33;;;12.80;99.00;;;;;;5002867;28;20109;-65
2023/06/18 02:06:58;;;;;;;68.43;40.33;;;12.80;99.00;;;;;;5004097;28;20454;-66
2023/06/18 02:09:23;;;;;;;69.90;41.40;;;12.80;99.10;;;;;;5000243;28;20061;-64
2023/06/18 02:11:49;;;;;;;71.15;40.72;;;12.80;99.10;;;;;;5001330;28;20180;-65
2023/06/18 02:14:14;;;;;;;63.17;39.45;;;12.90;99.20;;;;;;5008283;28;20465;-65
2023/06/18 02:16:40;;;;;;;70.25;41.35;;;12.80;99.10;;;;;;5006985;28;20096;-66
2023/06/18 02:19:06;;;;;;;70.22;42.55;;;12.80;99.10;;;;;;5000780;28;20472;-64
2023/06/18 02:21:32;;;;;;;80.07;45.95;;;12.80;99.10;;;;;;5006936;28;20373;-65
2023/06/18 02:23:57;;;;;;;67.97;42.45;;;12.80;99.10;;;;;;5000581;28;20042;-64
2023/06/18 02:26:23;;;;;;;71.28;42.30;;;12.80;99.10;;;;;;5006519;28;20538;-64
2023/06/18 02:28:48;;;;;;;69.32;41.85;;;12.70;99.00;;;;;;5005425;28;20093;-65
2023/06/18 02:31:14;;;;;;;67.53;40.53;;;12.70;99.00;;;;;;5009493;28;20124;-64
2023/06/18 02:33:39;;;;;;;65.80;40.15;;;12.60;99.00;;;;;;5005333;28;20025;-65
2023/06/18 02:36:05;;;;;;;67.43;41.97;;;12.60;99.00;;;;;;5000855;28;20431;-66
2023/06/18 02:38:31;;;;;;;64.35;38.65;;;12.60;98.90;;;;;;5001648;28;20100;-64
2023/06/18 02:40:57;;;;;;;61.40;36.92;;;12.50;98.90;;;;;;5009510;28;20064;-65
2023/06/18 02:43:22;;;;;;;61.47;37.60;;;12.50;98.90;;;;;;5009485;28;20069;-65
2023/06/18 02:45:50;;;;;;;61.03;37.90;;;12.50;98.90;;;;;;5005320;28;20357;-65
2023/06/18 02:48:15;;;;;;;60.35;36.28;;;12.40;98.90;;;;;;5010163;28;20045;-65
2023/06/18 02:50:41;;;;;;;65.68;38.88;;;12.40;98.90;;;;;;5005362;28;20048;-65
2023/06/18 02:53:06;;;;;;;68.88;39.03;;;12.40;98.80;;;;;;5004057;28;20038;-65
2023/06/18 02:55:32;;;;;;;69.72;39.17;;;12.30;98.80;;;;;;5006761;28;20478;-65
2023/06/18 02:57:57;;;;;;;67.93;39.65;;;12.30;98.80;;;;;;5009208;28;20037;-65
2023/06/18 03:00:23;;;;;;;61.92;38.08;;;12.30;98.80;;;;;;5011624;28;20073;-65
2023/06/18 03:02:48;;;;;;;59.88;38.42;;;12.30;98.80;;;;;;5010334;28;20033;-66
2023/06/18 03:05:14;;;;;;;66.72;38.50;;;12.30;98.90;;;;;;5002175;28;20236;-65
2023/06/18 03:07:39;;;;;;;66.28;38.13;;;12.30;98.80;;;;;;5006852;28;20091;-65
2023/06/18 03:10:06;;;;;;;63.03;37.78;;;12.30;98.90;;;;;;5012356;28;20053;-66
2023/06/18 03:12:31;;;;;;;66.43;38.83;;;12.30;98.80;;;;;;5010282;28;20043;-65
2023/06/18 03:14:57;;;;;;;64.13;38.80;;;12.30;98.80;;;;;;5008162;28;20111;-65
2023/06/18 03:17:22;;;;;;;70.25;39.15;;;12.30;98.80;;;;;;5011785;28;20109;-65
2023/06/18 03:19:48;;;;;;;67.15;39.17;;;12.30;98.80;;;;;;5011237;28;20022;-65
2023/06/18 03:22:14;;;;;;;65.43;40.30;;;12.30;98.90;;;;;;5006647;28;20463;-65
2023/06/18 03:24:40;;;;;;;74.57;41.75;;;12.30;98.90;;;;;;5016108;28;20099;-65
2023/06/18 03:27:06;;;;;;;77.43;43.40;;;12.30;98.90;;;;;;5011838;28;20087;-65
2023/06/18 03:29:34;;;;;;;75.68;44.25;;;12.40;99.00;;;;;;5005158;28;20466;-65
2023/06/18 03:32:00;;;;;;;76.13;45.15;;;12.40;99.10;;;;;;5014477;28;20037;-65
2023/06/18 03:34:26;;;;;;;77.35;44.40;;;12.50;99.10;;;;;;5006572;28;20106;-68
2023/06/18 03:36:52;;;;;;;72.50;42.67;;;12.50;99.00;;;;;;5008952;28;20137;-65
2023/06/18 03:39:19;;;;;;;74.50;42.60;;;12.50;99.10;;;;;;5000277;28;20022;-65
2023/06/18 03:41:45;;;;;;;68.30;41.70;;;12.50;99.20;;;;;;5006940;28;20327;-65
2023/06/18 03:44:11;;;;;;;73.50;44.25;;;12.50;99.10;;;;;;5017904;28;20033;-66
2023/06/18 03:46:37;;;;;;;77.00;43.55;;;12.60;99.10;;;;;;5002512;28;20046;-65
2023/06/18 03:49:03;;;;;;;72.18;42.10;;;12.50;99.00;;;;;;5005591;28;20101;-64
2023/06/18 03:51:28;;;;;;;79.70;43.42;;;12.60;99.10;;;;;;5003638;28;20053;-65
2023/06/18 03:53:54;;;;;;;76.40;43.72;;;12.60;99.10;;;;;;5011078;28;20061;-65
2023/06/18 03:56:21;;;;;;;74.53;41.17;;;12.60;99.00;;;;;;5003075;28;20036;-65
2023/06/18 03:58:48;;;;;;;72.50;43.88;;;12.60;99.00;;;;;;4999359;28;20473;-64
2023/06/18 04:01:14;;;;;;;81.63;43.55;;;12.60;99.00;;;;;;5009662;28;20070;-66
2023/06/18 04:03:39;;;;;;;83.18;43.15;;;12.60;98.90;;;;;;5012784;28;20150;-65
2023/06/18 04:06:06;;;;;;;78.65;46.17;;;12.70;98.90;;;;;;5002722;28;20113;-67
2023/06/18 04:08:31;;;;;;;77.75;45.47;;;12.70;99.00;;;;;;4999514;28;20121;-65
2023/06/18 04:10:58;;;;;;;81.50;45.40;;;12.80;99.00;;;;;;5010491;28;20445;-65
2023/06/18 04:13:23;;;;;;;74.70;45.70;;;12.80;99.00;;;;;;5007430;28;20104;-65
2023/06/18 04:15:49;;;;;;;82.63;46.25;;;12.80;99.00;;;;;;5002910;28;20092;-65
2023/06/18 04:18:15;;;;;;;77.30;46.25;;;12.90;99.00;;;;;;5015163;28;20092;-66
2023/06/18 04:20:41;;;;;;;79.80;45.00;;;12.90;99.10;;;;;;5011158;28;20092;-65
2023/06/18 04:23:07;;;;;;;80.13;46.13;;;13.00;99.20;;;;;;5000111;28;20435;-67
2023/06/18 04:25:33;;;;;;;77.22;47.42;;;13.10;99.10;;;;;;5007893;28;20125;-65
2023/06/18 04:27:59;;;;;;;78.28;45.47;;;13.10;99.20;;;;;;5010329;28;20030;-66
2023/06/18 04:30:25;;;;;;;88.43;47.70;;;13.20;99.20;;;;;;5003739;28;20543;-63
2023/06/18 04:32:50;;;;;;;81.78;47.88;;;13.30;99.20;;;;;;5019413;28;20101;-63
2023/06/18 04:35:16;;;;;;;75.93;45.58;;;13.40;99.30;;;;;;5008038;28;20236;-64
2023/06/18 04:37:41;;;;;;;77.43;44.92;;;13.50;99.40;;;;;;5008890;28;20339;-64
2023/06/18 04:40:08;;;;;;;90.95;49.67;;;13.60;99.40;;;;;;5007057;28;20063;-64
2023/06/18 04:42:35;;;;;;;80.85;48.15;;;13.60;99.30;;;;;;5014073;28;20020;-64
2023/06/18 04:45:00;;;;;;;84.15;48.78;;;13.70;99.30;;;;;;5009523;28;20053;-65
2023/06/18 04:47:26;;;;;;;86.25;49.50;;;13.70;99.30;;;;;;5008760;28;20070;-64
2023/06/18 04:49:51;;;;;;;87.85;48.78;;;13.80;99.40;;;;;;5004865;28;20108;-63
2023/06/18 04:52:17;;;;;;;79.82;48.58;;;14.00;99.60;;;;;;5009659;28;20029;-65
2023/06/18 04:54:42;;;;;;;87.40;51.15;;;14.10;99.60;;;;;;5009280;28;20028;-64
2023/06/18 04:57:09;;;;;;;85.80;51.33;;;14.10;99.60;;;;;;5012065;28;20331;-64
2023/06/18 04:59:36;;;;;;;93.82;52.25;;;14.20;99.50;;;;;;5002888;28;20018;-64
2023/06/18 05:02:03;;;;;;;92.82;53.40;;;14.30;99.70;;;;;;5006778;28;20104;-64
2023/06/18 05:04:28;;;;;;;89.65;53.95;;;14.40;99.70;;;;;;5013520;28;20025;-64
2023/06/18 05:06:54;;;;;;;97.95;56.50;;;14.50;99.70;;;;;;5003289;28;20032;-67
2023/06/18 05:09:20;;;;;;;88.10;53.58;;;14.60;99.70;;;;;;5000428;28;20062;-64
2023/06/18 05:11:45;;;;;;;96.05;54.28;;;14.60;99.70;;;;;;5002068;28;20034;-64
2023/06/18 05:14:10;;;;;;;88.97;51.60;;;14.70;99.70;;;;;;5005709;28;20140;-64
2023/06/18 05:16:36;;;;;;;79.35;47.78;;;14.80;99.70;;;;;;5003185;28;20143;-64
2023/06/18 05:19:02;;;;;;;74.45;45.88;;;14.80;99.60;;;;;;4994714;28;20338;-63
2023/06/18 05:21:27;;;;;;;84.93;48.17;;;14.90;99.40;;;;;;4999708;28;20022;-63
2023/06/18 05:23:53;;;;;;;80.70;46.38;;;14.90;99.30;;;;;;5003885;28;20200;-62
2023/06/18 05:26:20;;;;;;;71.75;44.28;;;15.00;99.20;;;;;;5000227;28;20030;-63
2023/06/18 05:28:46;;;;;;;66.70;42.58;;;15.10;99.10;;;;;;5001738;28;20048;-64
2023/06/18 05:31:11;;;;;;;67.55;43.03;;;15.10;98.90;;;;;;4998642;28;20455;-63
2023/06/18 05:33:37;;;;;;;61.47;40.03;;;15.30;98.80;;;;;;4997656;28;20030;-65
2023/06/18 05:36:03;;;;;;;63.15;39.58;;;15.30;98.70;;;;;;5008433;28;20506;-65
2023/06/18 05:38:28;;;;;;;59.17;40.25;;;15.50;98.70;;;;;;5007384;28;20021;-66
2023/06/18 05:40:54;;;;;;;66.07;41.85;;;15.60;98.70;;;;;;5006747;28;20117;-66
2023/06/18 05:43:19;;;;;;;66.43;42.63;;;15.80;98.80;;;;;;5003004;28;20040;-67
2023/06/18 05:45:44;;;;;;;58.45;39.35;;;15.90;98.80;;;;;;5009002;28;20083;-65
2023/06/18 05:48:11;;;;;;;54.45;39.55;;;16.00;98.90;;;;;;5007692;28;20065;-66
2023/06/18 05:50:36;;;;;;;57.60;37.53;;;16.10;98.90;;;;;;5003025;28;20033;-63
2023/06/18 05:53:02;;;;;;;48.92;33.45;;;16.20;98.80;;;;;;5009543;28;20022;-62
2023/06/18 05:55:27;;;;;;;49.92;32.97;;;16.30;98.80;;;;;;5007563;28;20022;-64
2023/06/18 05:57:53;;;;;;;49.08;34.72;;;16.50;98.10;;;;;;5007323;28;20458;-67
2023/06/18 06:00:19;;;;;;;41.88;32.65;;;16.70;97.50;;;;;;4997284;28;20033;-63
2023/06/18 06:02:45;;;;;;;42.58;31.98;;;16.90;96.90;;;;;;5000038;28;20491;-66
2023/06/18 06:05:11;;;;;;;32.30;24.80;;;17.00;97.00;;;;;;5001344;28;20037;-65
2023/06/18 06:07:36;;;;;;;29.00;22.02;;;17.10;97.10;;;;;;4999407;28;20038;-65
2023/06/18 06:10:02;;;;;;;26.13;20.05;;;17.30;95.90;;;;;;5001894;28;20044;-64
2023/06/18 06:12:27;;;;;;;21.58;19.27;;;17.50;95.40;;;;;;4998337;28;20477;-65
2023/06/18 06:14:53;;;;;;;22.35;18.73;;;17.70;94.80;;;;;;5001981;28;20034;-65
2023/06/18 06:17:18;;;;;;;18.83;16.30;;;17.80;94.30;;;;;;5006658;28;20510;-66
2023/06/18 06:19:44;;;;;;;20.50;16.60;;;18.00;93.40;;;;;;5003593;28;20026;-66
2023/06/18 06:22:09;;;;;;;14.60;10.10;;;18.10;93.70;;;;;;5006944;28;20091;-65
2023/06/18 06:24:35;;;;;;;13.10;11.75;;;18.20;89.20;;;;;;4997387;28;20109;-65
2023/06/18 06:27:00;;;;;;;13.32;11.63;;;18.50;91.80;;;;;;5002210;28;20095;-66
2023/06/18 06:29:26;;;;;;;12.38;10.52;;;18.50;90.90;;;;;;4997315;28;20034;-66
2023/06/18 06:31:51;;;;;;;10.55;9.30;;;18.70;90.00;;;;;;4994056;28;20150;-65
2023/06/18 06:34:17;;;;;;;11.20;9.93;;;18.70;89.30;;;;;;4997210;28;20112;-66
2023/06/18 06:36:43;;;;;;;12.00;9.60;;;18.90;90.20;;;;;;5004363;28;20441;-65
2023/06/18 06:39:09;;;;;;;10.52;8.95;;;19.00;88.30;;;;;;5005729;28;20104;-65
2023/06/18 06:41:34;;;;;;;9.60;8.27;;;19.30;87.60;;;;;;5000717;28;20038;-67
2023/06/18 06:44:00;;;;;;;11.50;8.95;;;19.30;86.70;;;;;;5009311;28;20048;-65
2023/06/18 06:46:26;;;;;;;9.57;8.63;;;19.50;88.00;;;;;;5005669;28;20057;-67
2023/06/18 06:48:51;;;;;;;10.75;8.98;;;19.70;85.00;;;;;;5003809;28;20030;-66
2023/06/18 06:51:17;;;;;;;8.52;7.40;;;19.70;85.60;;;;;;5009622;28;20030;-65
2023/06/18 06:53:42;;;;;;;8.85;7.47;;;19.80;82.90;;;;;;4998851;28;20084;-65
2023/06/18 06:56:08;;;;;;;8.15;7.15;;;19.80;83.00;;;;;;4996341;28;20045;-64
2023/06/18 06:58:33;;;;;;;9.18;7.50;;;19.90;83.70;;;;;;4999691;28;20103;-64
2023/06/18 07:00:59;;;;;;;10.25;8.00;;;20.00;83.50;;;;;;5021213;28;20030;-64
2023/06/18 07:03:25;;;;;;;8.63;7.38;;;20.10;84.30;;;;;;5007589;28;20085;-65
2023/06/18 07:05:50;;;;;;;7.80;6.57;;;20.30;84.60;;;;;;5006997;28;20105;-64
2023/06/18 07:08:16;;;;;;;9.27;6.78;;;20.50;82.00;;;;;;5009286;28;20327;-65
2023/06/18 07:10:41;;;;;;;7.10;5.93;;;20.60;82.50;;;;;;5008227;28;20034;-66
2023/06/18 07:13:07;;;;;;;8.43;6.47;;;20.80;81.40;;;;;;5016298;28;20034;-66
2023/06/18 07:15:32;;;;;;;8.93;7.10;;;20.80;77.70;;;;;;5004873;28;20541;-66
2023/06/18 07:17:58;;;;;;;7.22;6.32;;;21.00;78.90;;;;;;5006952;28;20112;-65
2023/06/18 07:20:23;;;;;;;8.68;6.93;;;21.00;79.60;;;;;;5004513;28;20040;-66
2023/06/18 07:22:49;;;;;;;8.60;5.32;;;21.20;79.50;;;;;;5003964;28;20469;-65
2023/06/18 07:25:14;;;;;;;7.18;5.68;;;21.40;78.90;;;;;;5007027;28;20048;-66
2023/06/18 07:27:40;;;;;;;6.22;5.13;;;21.50;78.80;;;;;;5006484;28;20041;-65
2023/06/18 07:30:06;;;;;;;6.38;5.45;;;21.60;77.50;;;;;;5000566;28;20114;-67
2023/06/18 07:32:31;;;;;;;7.50;5.18;;;21.70;76.40;;;;;;5006708;28;20030;-67
2023/06/18 07:34:57;;;;;;;7.57;5.13;;;22.00;77.70;;;;;;5003553;28;20036;-66
2023/06/18 07:37:23;;;;;;;7.55;5.03;;;22.30;78.00;;;;;;5006114;28;20116;-67
2023/06/18 07:39:48;;;;;;;6.70;5.25;;;22.50;74.60;;;;;;5003311;28;20025;-67
2023/06/18 07:42:13;;;;;;;7.03;5.18;;;22.70;75.20;;;;;;5005400;28;20116;-66
2023/06/18 07:44:39;;;;;;;6.80;5.10;;;22.70;72.20;;;;;;5006830;28;20102;-66
2023/06/18 07:47:05;;;;;;;7.55;5.43;;;22.80;68.30;;;;;;5003942;28;20073;-67
2023/06/18 07:49:30;;;;;;;7.63;5.18;;;23.00;68.60;;;;;;5018291;28;20120;-67
2023/06/18 07:51:56;;;;;;;6.68;5.35;;;22.90;68.20;;;;;;5002051;28;20026;-69
2023/06/18 07:54:21;;;;;;;7.90;5.15;;;23.20;72.70;;;;;;5004157;28;20117;-66
2023/06/18 07:56:47;;;;;;;7.43;4.97;;;23.20;68.80;;;;;;4998285;28;20438;-67
2023/06/18 07:59:12;;;;;;;6.93;5.30;;;22.90;66.50;;;;;;4996659;28;20103;-68
2023/06/18 08:01:38;;;;;;;9.85;4.80;;;23.10;69.40;;;;;;5000969;28;20033;-66
2023/06/18 08:04:03;;;;;;;7.25;4.93;;;23.50;70.60;;;;;;5006734;28;20038;-67
2023/06/18 08:06:29;;;;;;;6.80;4.40;;;23.60;65.30;;;;;;5008483;28;20073;-67
2023/06/18 08:08:54;;;;;;;5.47;4.28;;;23.80;69.40;;;;;;5005926;28;20141;-68
2023/06/18 08:11:20;;;;;;;6.53;3.80;;;24.00;67.80;;;;;;4998966;28;20092;-69
2023/06/18 08:13:46;;;;;;;5.32;3.85;;;24.20;67.60;;;;;;4997039;28;20038;-69
2023/06/18 08:16:11;;;;;;;7.90;3.97;;;24.40;65.70;;;;;;4999441;28;20049;-67
2023/06/18 08:18:37;;;;;;;5.93;3.63;;;24.10;64.30;;;;;;4997074;28;20405;-67
2023/06/18 08:21:03;;;;;;;5.65;3.60;;;24.40;63.10;;;;;;4998203;28;20477;-67
2023/06/18 08:23:29;;;;;;;6.05;3.72;;;24.60;62.20;;;;;;4999264;28;20034;-67
2023/06/18 08:25:55;;;;;;;6.45;4.00;;;24.20;63.70;;;;;;4995381;28;20457;-66
2023/06/18 08:28:20;;;;;;;4.63;3.80;;;24.40;61.60;;;;;;4997402;28;20332;-67
2023/06/18 08:30:46;;;;;;;5.40;4.13;;;24.20;62.60;;;;;;4998403;28;20021;-65
2023/06/18 08:33:12;;;;;;;5.88;3.35;;;24.10;62.70;;;;;;4996843;28;20501;-66
2023/06/18 08:35:37;;;;;;;4.30;3.67;;;24.20;60.70;;;;;;4996854;28;20129;-65
2023/06/18 08:38:03;;;;;;;4.75;3.60;;;24.50;60.40;;;;;;4995983;28;20039;-64
2023/06/18 08:40:35;;;;;;;6.07;3.83;;;24.70;58.00;;;;;;4997041;28;20141;-65
2023/06/18 08:43:01;;;;;;;7.18;3.50;;;24.70;55.20;;;;;;4997698;28;20323;-66
2023/06/18 08:45:26;;;;;;;4.53;3.42;;;24.90;57.50;;;;;;5005455;28;20191;-65
2023/06/18 08:47:57;;;;;;;7.57;2.97;;;25.10;54.40;;;;;;4996106;28;20039;-65
2023/06/18 08:50:24;;;;;;;7.90;3.33;;;24.70;50.60;;;;;;4996094;28;20352;-65
2023/06/18 08:52:53;;;;;;;4.35;3.22;;;24.90;51.80;;;;;;5003897;28;20021;-66
2023/06/18 08:55:18;;;;;;;4.97;3.30;;;24.90;51.80;;;;;;4997115;28;20418;-66
2023/06/18 08:58:05;;;;;;;5.00;3.22;;;25.20;51.90;;;;;;4993823;28;20046;-66
2023/06/18 09:00:30;;;;;;;6.18;3.40;;;25.40;51.40;;;;;;5004542;28;20176;-65
2023/06/18 09:02:56;;;;;;;5.68;3.83;;;25.30;52.10;;;;;;5006372;28;20089;-65
2023/06/18 09:05:23;;;;;;;5.63;3.17;;;25.50;51.40;;;;;;5007579;28;20034;-65
2023/06/18 09:07:49;;;;;;;4.57;3.33;;;25.40;49.80;;;;;;5008681;28;20070;-65
2023/06/18 09:10:17;;;;;;;4.00;3.00;;;25.40;50.00;;;;;;4994788;28;20061;-66
2023/06/18 09:12:42;;;;;;;6.82;3.42;;;25.70;50.10;;;;;;4996550;28;20018;-67
2023/06/18 09:15:08;;;;;;;6.18;3.30;;;26.20;50.10;;;;;;4996312;28;20051;-66
2023/06/18 09:17:36;;;;;;;7.15;3.28;;;25.80;47.20;;;;;;4994826;28;20034;-65
2023/06/18 09:20:02;;;;;;;5.05;3.13;;;25.90;47.60;;;;;;4996175;28;20514;-65
2023/06/18 09:22:28;;;;;;;4.38;2.70;;;25.90;47.70;;;;;;4995203;28;20187;-65
2023/06/18 09:24:57;;;;;;;5.78;3.40;;;26.00;44.80;;;;;;4996341;28;20025;-65
2023/06/18 09:27:31;;;;;;;8.45;3.17;;;26.30;45.10;;;;;;4994015;28;20068;-65
2023/06/18 09:29:57;;;;;;;5.63;3.20;;;25.90;49.40;;;;;;4997089;28;20163;-66
2023/06/18 09:32:22;;;;;;;4.28;2.80;;;26.60;47.50;;;;;;4994151;28;20039;-64
2023/06/18 09:34:48;;;;;;;4.30;2.75;;;26.90;44.50;;;;;;4990710;28;20105;-65
2023/06/18 09:37:15;;;;;;;4.65;2.97;;;26.90;43.50;;;;;;4991653;28;20110;-65
2023/06/18 09:39:40;;;;;;;5.18;3.10;;;27.00;44.10;;;;;;4992765;28;20084;-65
2023/06/18 09:42:09;;;;;;;4.85;3.17;;;26.70;41.50;;;;;;4997365;28;20097;-65
2023/06/18 09:44:35;;;;;;;4.10;2.85;;;26.60;41.00;;;;;;4994527;28;20030;-65
2023/06/18 09:47:02;;;;;;;5.10;2.90;;;26.80;43.10;;;;;;4994086;28;20054;-65
2023/06/18 09:49:29;;;;;;;5.57;3.00;;;27.10;42.90;;;;;;5001479;28;20044;-66
2023/06/18 09:51:54;;;;;;;3.38;2.47;;;27.30;43.60;;;;;;5013187;28;20053;-66
2023/06/18 09:54:21;;;;;;;4.32;2.88;;;27.40;41.00;;;;;;5000599;28;20076;-67
2023/06/18 09:56:58;;;;;;;4.20;2.60;;;27.50;42.70;;;;;;5001637;28;20037;-66
2023/06/18 09:59:24;;;;;;;4.57;2.70;;;27.60;39.70;;;;;;5003630;28;20084;-65
2023/06/18 10:01:50;;;;;;;4.10;2.60;;;28.00;44.00;;;;;;5007181;28;20034;-66
2023/06/18 10:04:16;;;;;;;5.28;2.50;;;27.80;36.40;;;;;;5004650;28;20482;-66
2023/06/18 10:06:51;;;;;;;3.92;2.40;;;28.00;36.80;;;;;;5003357;28;20033;-66
2023/06/18 10:09:18;;;;;;;3.50;2.63;;;27.90;38.00;;;;;;5001579;28;20046;-67
2023/06/18 10:11:48;;;;;;;3.95;2.35;;;28.30;37.90;;;;;;4997874;28;20022;-65
2023/06/18 10:14:16;;;;;;;3.22;2.35;;;28.30;37.60;;;;;;5017404;28;20038;-66
2023/06/18 10:16:47;;;;;;;3.67;2.38;;;28.50;36.70;;;;;;5005668;28;20354;-66
2023/06/18 10:19:29;;;;;;;4.03;2.70;;;28.40;37.00;;;;;;5011961;28;20038;-65
2023/06/18 10:22:00;;;;;;;4.07;2.45;;;28.30;35.10;;;;;;5002241;28;20022;-66
2023/06/18 10:24:50;;;;;;;4.63;2.55;;;28.50;35.90;;;;;;5002766;28;20069;-66
2023/06/18 10:27:16;;;;;;;4.40;2.65;;;28.90;37.20;;;;;;4998362;28;20030;-67
2023/06/18 10:29:42;;;;;;;2.67;2.38;;;28.80;36.50;;;;;;4998791;28;20113;-65
2023/06/18 10:32:09;;;;;;;4.72;2.78;;;28.70;37.40;;;;;;5007635;28;20045;-66
2023/06/18 10:34:37;;;;;;;3.40;2.28;;;28.60;36.90;;;;;;5006276;28;20026;-66
2023/06/18 10:37:03;;;;;;;4.40;2.42;;;28.50;37.50;;;;;;4999231;28;20058;-67
2023/06/18 10:39:29;;;;;;;4.38;2.60;;;28.60;36.70;;;;;;5004113;28;20374;-67
2023/06/18 10:42:00;;;;;;;3.67;2.53;;;28.50;36.10;;;;;;5003796;28;20104;-66
2023/06/18 10:44:33;;;;;;;4.15;2.88;;;29.20;37.30;;;;;;5004383;28;20108;-67
2023/06/18 10:47:19;;;;;;;4.03;2.45;;;29.10;37.50;;;;;;5002649;28;20053;-66
2023/06/18 10:50:02;;;;;;;4.28;2.45;;;29.00;36.20;;;;;;5007504;28;20038;-66
2023/06/18 10:52:30;;;;;;;2.92;2.33;;;29.10;34.50;;;;;;5008579;28;20076;-66
2023/06/18 10:55:19;;;;;;;4.55;2.45;;;29.10;35.90;;;;;;5006952;28;20026;-67
2023/06/18 10:57:47;;;;;;;5.47;2.80;;;29.30;34.70;;;;;;5004015;28;20116;-66
2023/06/18 11:00:18;;;;;;;4.43;2.88;;;29.50;35.10;;;;;;5002966;28;20033;-66
2023/06/18 11:02:46;;;;;;;4.72;2.80;;;30.00;34.80;;;;;;5003720;28;20427;-66
2023/06/18 11:05:34;;;;;;;4.53;2.70;;;29.60;34.30;;;;;;4999596;28;20033;-67
2023/06/18 11:08:05;;;;;;;3.10;2.22;;;29.70;34.70;;;;;;5007152;28;20025;-66
2023/06/18 11:10:45;;;;;;;3.53;2.40;;;29.80;35.70;;;;;;5004769;28;20141;-66
2023/06/18 11:13:11;;;;;;;3.58;2.45;;;29.90;35.40;;;;;;5002682;28;20104;-66
2023/06/18 11:16:00;;;;;;;3.15;2.45;;;29.80;35.10;;;;;;5004150;28;20044;-68
2023/06/18 11:18:27;;;;;;;4.40;2.60;;;29.80;34.80;;;;;;5005868;28;20272;-67
2023/06/18 11:20:55;;;;;;;3.38;2.33;;;29.80;36.20;;;;;;5003627;28;20033;-66
2023/06/18 11:23:22;;;;;;;3.70;2.70;;;29.70;35.40;;;;;;5006106;28;20172;-67
2023/06/18 11:25:50;;;;;;;4.68;2.70;;;29.40;33.60;;;;;;5011636;28;20030;-65
2023/06/18 11:28:16;;;;;;;4.80;2.58;;;30.00;34.20;;;;;;5007188;28;20026;-65
2023/06/18 11:30:48;;;;;;;3.17;2.05;;;30.30;33.70;;;;;;5016709;28;20718;-67
2023/06/18 11:33:13;;;;;;;2.95;2.15;;;30.20;33.40;;;;;;4998518;28;20429;-66
2023/06/18 11:35:39;;;;;;;3.20;2.50;;;30.40;33.00;;;;;;5017164;28;20026;-67
2023/06/18 11:38:04;;;;;;;2.88;2.10;;;30.50;32.60;;;;;;5001844;28;20049;-65
2023/06/18 11:40:30;;;;;;;2.65;2.10;;;30.80;32.90;;;;;;5004565;28;20113;-67
2023/06/18 11:42:55;;;;;;;3.85;2.15;;;30.40;31.70;;;;;;5002881;28;20335;-68
2023/06/18 11:45:21;;;;;;;3.28;2.30;;;30.70;30.70;;;;;;5007602;28;20438;-65
2023/06/18 11:47:51;;;;;;;4.70;2.47;;;31.00;32.80;;;;;;5003541;28;20065;-66
2023/06/18 11:50:19;;;;;;;3.50;2.35;;;30.90;33.60;;;;;;5009650;28;20069;-66
2023/06/18 11:52:45;;;;;;;3.63;2.20;;;31.50;34.90;;;;;;5012135;28;20026;-65
2023/06/18 11:55:10;;;;;;;4.88;2.30;;;31.70;35.40;;;;;;5003506;28;20036;-65
2023/06/18 11:57:36;;;;;;;5.22;2.50;;;31.70;31.50;;;;;;5004350;28;20037;-66
2023/06/18 12:00:08;;;;;;;3.60;2.30;;;31.40;31.10;;;;;;5004328;28;20129;-67
2023/06/18 12:02:36;;;;;;;3.63;2.20;;;31.40;30.30;;;;;;5002868;28;20034;-65
2023/06/18 12:05:08;;;;;;;2.30;1.92;;;32.20;32.60;;;;;;5005985;28;20036;-67
2023/06/18 12:07:36;;;;;;;3.20;2.22;;;32.40;32.80;;;;;;4999795;28;20064;-68
2023/06/18 12:10:07;;;;;;;3.67;2.30;;;32.20;31.20;;;;;;4999241;28;20121;-65
2023/06/18 12:12:57;;;;;;;3.42;2.47;;;32.60;31.80;;;;;;5004874;28;20750;-65
2023/06/18 12:15:52;;;;;;;3.50;2.40;;;32.50;31.30;;;;;;4994312;28;20026;-66
2023/06/18 12:18:25;;;;;;;3.13;2.50;;;32.30;31.50;;;;;;4997182;28;20026;-67
2023/06/18 12:20:52;;;;;;;4.43;2.50;;;32.60;30.70;;;;;;5005868;28;20044;-65
2023/06/18 12:23:17;;;;;;;4.70;2.25;;;32.90;30.70;;;;;;5007208;28;20037;-64
2023/06/18 12:25:43;;;;;;;3.00;2.38;;;32.50;29.70;;;;;;5001896;28;20320;-65
2023/06/18 12:28:09;;;;;;;3.80;2.50;;;32.50;30.50;;;;;;5005971;28;20065;-65
2023/06/18 12:30:36;;;;;;;3.45;2.42;;;32.30;31.70;;;;;;5010880;28;20504;-64
2023/06/18 12:33:05;;;;;;;3.33;2.28;;;32.60;32.80;;;;;;5002653;28;20060;-66
2023/06/18 12:35:31;;;;;;;3.17;2.33;;;33.00;31.70;;;;;;5010779;28;20061;-64